createdAt,value
2019-05-13T00:03:03.376Z,101676.20
2019-05-13T00:13:06.628Z,101686.91
2019-05-13T00:23:10.599Z,101697.77
2019-05-13T00:33:14.505Z,101688.34
2019-05-13T00:43:18.088Z,101697.63
2019-05-13T00:53:23.624Z,101706.07
2019-05-13T01:03:28.439Z,101719.92
2019-05-13T01:13:34.069Z,101719.63
2019-05-13T01:23:37.379Z,101722.36
2019-05-13T01:33:41.004Z,101719.54
2019-05-13T01:43:44.576Z,101724.20
2019-05-13T01:53:48.336Z,101724.11
2019-05-13T02:03:54.363Z,101735.72
2019-05-13T02:13:57.223Z,101722.19
2019-05-13T02:24:00.831Z,101724.41
2019-05-13T02:34:05.137Z,101721.82
2019-05-13T02:44:11.989Z,101728.84
2019-05-13T02:54:14.024Z,101730.98
2019-05-13T03:04:17.624Z,101722.20
2019-05-13T03:14:23.832Z,101721.25
2019-05-13T03:24:26.546Z,101722.53
2019-05-13T03:34:36.163Z,101736.78
2019-05-13T03:54:39.517Z,101759.50
2019-05-13T04:04:43.111Z,101758.97
2019-05-13T04:14:46.665Z,101781.24
2019-05-13T04:24:53.046Z,101795.56
2019-05-13T04:34:55.674Z,101791.55
2019-05-13T04:45:02.667Z,101786.04
2019-05-13T04:55:06.949Z,101780.11
2019-05-13T05:05:28.991Z,101801.38
2019-05-13T05:15:41.581Z,101811.93
2019-05-13T05:26:22.295Z,101805.41
2019-05-13T05:36:45.961Z,101829.32
2019-05-13T05:46:51.536Z,101844.08
2019-05-13T05:56:54.843Z,101852.73
2019-05-13T06:06:58.454Z,101854.38
2019-05-13T06:17:02.819Z,101851.70
2019-05-13T06:27:06.610Z,101859.16
2019-05-13T06:37:11.408Z,101858.00
2019-05-13T06:47:15.191Z,101869.92
2019-05-13T06:57:19.032Z,101873.97
2019-05-13T07:07:22.625Z,101869.55
2019-05-13T07:17:26.219Z,101867.25
2019-05-13T07:27:31.774Z,101860.11
2019-05-13T07:37:35.113Z,101856.84
2019-05-13T07:47:38.688Z,101857.31
2019-05-13T07:57:42.538Z,101856.69
2019-05-13T08:07:46.218Z,101859.69
2019-05-13T08:17:52.418Z,101861.34
2019-05-13T08:27:55.167Z,101866.38
2019-05-13T08:38:01.173Z,101873.98
2019-05-13T08:48:05.211Z,101875.76
2019-05-13T08:58:08.808Z,101882.85
2019-05-13T09:08:12.380Z,101872.09
2019-05-13T09:18:15.997Z,101871.11
2019-05-13T09:28:21.810Z,101880.34
2019-05-13T09:38:24.906Z,101880.67
2019-05-13T09:48:28.504Z,101892.45
2019-05-13T09:58:33.127Z,101892.28
2019-05-13T10:08:37.389Z,101885.92
2019-05-13T10:18:42.097Z,101897.33
2019-05-13T10:28:46.100Z,101900.77
2019-05-13T10:38:51.967Z,101897.61
2019-05-13T10:48:55.003Z,101890.06
2019-05-13T10:58:58.607Z,101878.56
2019-05-13T11:09:02.347Z,101866.78
2019-05-13T11:19:06.049Z,101877.59
2019-05-13T11:29:12.094Z,101871.23
2019-05-13T11:39:14.959Z,101875.13
2019-05-13T11:49:18.541Z,101875.95
2019-05-13T11:59:22.328Z,101882.00
2019-05-13T12:09:25.944Z,101870.43
2019-05-13T12:19:29.520Z,101871.29
2019-05-13T12:29:33.112Z,101873.87
2019-05-13T12:39:36.704Z,101864.36
2019-05-13T12:49:43.855Z,101856.30
2019-05-13T12:59:45.596Z,101837.04
2019-05-13T13:09:53.647Z,101836.42
2019-05-13T13:20:04.654Z,101822.50
2019-05-13T13:30:06.056Z,101804.67
2019-05-13T13:40:07.332Z,101797.56
2019-05-13T13:50:11.797Z,101788.66
2019-05-13T14:00:32.955Z,101790.84
2019-05-13T14:10:22.043Z,101767.44
2019-05-13T14:20:25.826Z,101770.17
2019-05-13T14:30:31.282Z,101764.69
2019-05-13T14:40:35.419Z,101757.33
2019-05-13T14:50:41.579Z,101756.89
2019-05-13T15:00:45.007Z,101747.12
2019-05-13T15:10:48.609Z,101744.02
2019-05-13T15:20:52.974Z,101731.11
2019-05-13T15:30:56.804Z,101717.75
2019-05-13T15:41:01.933Z,101727.02
2019-05-13T15:51:05.834Z,101716.28
2019-05-13T16:01:09.412Z,101701.51
2019-05-13T16:11:13.009Z,101703.67
2019-05-13T16:21:16.992Z,101696.89
2019-05-13T16:31:20.592Z,101703.50
2019-05-13T16:41:24.233Z,101708.82
2019-05-13T16:51:27.807Z,101711.52
2019-05-13T17:01:31.380Z,101709.86
2019-05-13T17:11:34.978Z,101711.98
2019-05-13T17:21:40.957Z,101717.44
2019-05-13T17:31:43.869Z,101731.44
2019-05-13T17:41:47.486Z,101737.75
2019-05-13T17:51:51.677Z,101725.77
2019-05-13T18:01:55.900Z,101743.91
2019-05-13T18:11:59.504Z,101744.21
2019-05-13T18:22:03.139Z,101746.17
2019-05-13T18:32:08.288Z,101750.41
2019-05-13T18:42:11.911Z,101760.45
2019-05-13T18:52:15.509Z,101766.02
2019-05-13T19:02:21.278Z,101770.29
2019-05-13T19:12:25.822Z,101779.05
2019-05-13T19:22:31.657Z,101771.62
2019-05-13T19:32:35.019Z,101762.56
2019-05-13T19:42:38.693Z,101769.34
2019-05-13T19:52:42.299Z,101775.08
2019-05-13T20:02:45.909Z,101778.44
2019-05-13T20:12:51.277Z,101781.58
2019-05-13T20:22:54.915Z,101772.02
2019-05-13T20:32:58.493Z,101772.06
2019-05-13T20:43:02.083Z,101772.67
2019-05-13T20:53:05.792Z,101768.96
2019-05-13T21:03:11.563Z,101757.08
2019-05-13T21:13:14.746Z,101753.47
2019-05-13T21:23:18.526Z,101744.05
2019-05-13T21:33:22.326Z,101738.17
2019-05-13T21:43:25.879Z,101730.97
2019-05-13T21:53:32.360Z,101711.52
2019-05-13T22:03:35.206Z,101703.75
2019-05-13T22:13:38.743Z,101698.63
2019-05-13T22:23:42.428Z,101695.76
2019-05-13T22:33:46.075Z,101691.29
2019-05-13T22:43:55.680Z,101691.97
2019-05-13T22:53:55.027Z,101687.19
2019-05-13T23:03:58.628Z,101687.45
2019-05-13T23:14:09.774Z,101691.18
2019-05-13T23:24:08.242Z,101689.57
2019-05-13T23:34:12.154Z,101675.75
2019-05-13T23:44:24.836Z,101675.75
2019-05-13T23:54:21.544Z,101669.41
